createdAt,value
2022-12-24T00:01:01.493Z,99072.14
2022-12-24T00:03:49.949Z,99069.02
2022-12-24T00:06:44.373Z,99063.80
2022-12-24T00:09:14.447Z,99064.33
2022-12-24T00:12:04.407Z,99057.39
2022-12-24T00:14:53.888Z,99057.81
2022-12-24T00:17:45.106Z,99064.09
2022-12-24T00:20:34.377Z,99070.39
2022-12-24T00:23:23.297Z,99079.95
2022-12-24T00:26:13.722Z,99074.20
2022-12-24T00:29:03.974Z,99063.41
2022-12-24T00:31:52.330Z,99071.94
2022-12-24T00:34:41.806Z,99072.67
2022-12-24T00:37:31.040Z,99076.15
2022-12-24T00:40:20.937Z,99075.09
2022-12-24T00:43:13.360Z,99067.73
2022-12-24T00:46:03.689Z,99062.83
2022-12-24T00:48:56.968Z,99072.92
2022-12-24T00:51:51.619Z,99079.21
2022-12-24T00:54:22.104Z,99072.95
2022-12-24T00:57:14.662Z,99080.92
2022-12-24T01:00:04.312Z,99087.89
2022-12-24T01:02:55.610Z,99082.15
2022-12-24T01:05:24.375Z,99082.88
2022-12-24T01:08:14.374Z,99081.00
2022-12-24T01:11:13.351Z,99079.00
2022-12-24T01:14:02.712Z,99081.13
2022-12-24T01:16:51.971Z,99082.38
2022-12-24T01:19:44.333Z,99084.13
2022-12-24T01:22:37.755Z,99087.09
2022-12-24T01:25:07.981Z,99083.45
2022-12-24T01:28:02.728Z,99083.44
2022-12-24T01:30:51.369Z,99080.48
2022-12-24T01:33:51.655Z,99070.73
2022-12-24T01:36:44.534Z,99071.40
2022-12-24T01:39:34.954Z,99074.87
2022-12-24T01:42:42.644Z,99073.29
2022-12-24T01:45:44.308Z,99074.68
2022-12-24T01:48:42.445Z,99085.61
2022-12-24T01:51:38.168Z,99087.86
2022-12-24T01:54:18.881Z,99084.05
2022-12-24T01:57:14.036Z,99082.50
2022-12-24T02:00:11.225Z,99074.48
2022-12-24T02:03:02.965Z,99067.89
2022-12-24T02:05:40.750Z,99063.89
2022-12-24T02:08:41.998Z,99060.77
2022-12-24T02:11:31.233Z,99062.52
2022-12-24T02:14:21.931Z,99063.23
2022-12-24T02:17:19.927Z,99063.23
2022-12-24T02:21:02.185Z,99058.38
2022-12-24T02:24:11.537Z,99063.80
2022-12-24T02:27:02.323Z,99059.12
2022-12-24T02:30:11.970Z,99058.27
2022-12-24T02:33:14.161Z,99061.42
2022-12-24T02:36:09.179Z,99058.48
2022-12-24T02:39:09.054Z,99057.27
2022-12-24T02:42:07.098Z,99054.87
2022-12-24T02:44:43.001Z,99052.80
2022-12-24T02:47:14.536Z,99062.14
2022-12-24T02:49:48.379Z,99057.57
2022-12-24T02:52:38.300Z,99062.22
2022-12-24T02:55:41.760Z,99061.83
2022-12-24T02:58:41.571Z,99062.33
2022-12-24T03:01:45.182Z,99067.17
2022-12-24T03:04:49.138Z,99069.77
2022-12-24T03:07:43.916Z,99067.97
2022-12-24T03:10:41.940Z,99068.98
2022-12-24T03:13:33.603Z,99070.86
2022-12-24T03:16:27.236Z,99071.16
2022-12-24T03:19:23.578Z,99069.56
2022-12-24T03:22:15.735Z,99071.96
2022-12-24T03:25:09.313Z,99069.98
2022-12-24T03:28:02.766Z,99073.75
2022-12-24T03:30:52.050Z,99079.44
2022-12-24T03:33:43.124Z,99077.31
2022-12-24T03:36:34.276Z,99082.84
2022-12-24T03:39:25.209Z,99081.04
2022-12-24T03:42:13.679Z,99089.33
2022-12-24T03:45:08.242Z,99089.29
2022-12-24T03:47:59.637Z,99091.66
2022-12-24T03:50:49.865Z,99095.21
2022-12-24T03:53:41.060Z,99098.35
2022-12-24T03:56:33.833Z,99097.99
2022-12-24T03:59:24.398Z,99099.92
2022-12-24T04:02:16.991Z,99104.86
2022-12-24T04:05:12.864Z,99106.67
2022-12-24T04:07:40.884Z,99106.62
2022-12-24T04:10:13.732Z,99103.81
2022-12-24T04:12:41.451Z,99108.17
2022-12-24T04:15:10.829Z,99103.66
2022-12-24T04:17:40.431Z,99103.56
2022-12-24T04:20:11.150Z,99107.83
2022-12-24T04:22:39.444Z,99107.94
2022-12-24T04:25:11.117Z,99116.05
2022-12-24T04:27:40.140Z,99114.95
2022-12-24T04:30:10.516Z,99109.30
2022-12-24T04:32:39.372Z,99115.06
2022-12-24T04:35:09.975Z,99111.34
2022-12-24T04:37:38.209Z,99110.42
2022-12-24T04:40:09.014Z,99108.65
2022-12-24T04:42:37.070Z,99110.21
2022-12-24T04:45:10.414Z,99112.85
2022-12-24T04:47:38.354Z,99115.77
2022-12-24T04:50:08.364Z,99118.02
2022-12-24T04:52:36.536Z,99116.61
2022-12-24T04:55:14.193Z,99119.34
2022-12-24T04:57:42.906Z,99118.38
2022-12-24T05:00:12.739Z,99123.88
2022-12-24T05:02:41.060Z,99131.98
2022-12-24T05:05:11.602Z,99136.58
2022-12-24T05:07:41.564Z,99132.51
2022-12-24T05:10:12.409Z,99135.66
2022-12-24T05:12:40.026Z,99134.54
2022-12-24T05:15:09.742Z,99135.38
2022-12-24T05:17:37.327Z,99142.91
2022-12-24T05:20:08.671Z,99140.69
2022-12-24T05:22:54.633Z,99142.41
2022-12-24T05:25:45.973Z,99150.30
2022-12-24T05:28:14.847Z,99149.10
2022-12-24T05:30:43.469Z,99153.44
2022-12-24T05:33:11.829Z,99157.11
2022-12-24T05:35:41.175Z,99159.73
2022-12-24T05:38:09.162Z,99154.49
2022-12-24T05:40:37.370Z,99160.77
2022-12-24T05:43:26.817Z,99161.48
2022-12-24T05:45:59.641Z,99168.58
2022-12-24T05:48:29.830Z,99167.00
2022-12-24T05:50:57.585Z,99169.63
2022-12-24T05:53:26.676Z,99171.11
2022-12-24T05:55:54.351Z,99178.46
2022-12-24T05:58:22.077Z,99179.56
2022-12-24T06:00:54.395Z,99184.68
2022-12-24T06:03:23.044Z,99190.58
2022-12-24T06:06:01.185Z,99186.73
2022-12-24T06:08:31.424Z,99188.18
2022-12-24T06:11:01.316Z,99196.82
2022-12-24T06:13:28.967Z,99198.52
2022-12-24T06:15:57.242Z,99198.77
2022-12-24T06:18:25.134Z,99201.01
2022-12-24T06:20:53.387Z,99202.74
2022-12-24T06:23:26.267Z,99207.92
2022-12-24T06:25:57.199Z,99208.06
2022-12-24T06:28:25.101Z,99216.27
2022-12-24T06:31:03.211Z,99221.85
2022-12-24T06:33:32.548Z,99222.38
2022-12-24T06:36:00.267Z,99226.31
2022-12-24T06:38:30.280Z,99222.10
2022-12-24T06:40:57.959Z,99229.89
2022-12-24T06:43:28.155Z,99232.96
2022-12-24T06:46:06.662Z,99237.52
2022-12-24T06:48:34.457Z,99240.55
2022-12-24T06:51:05.505Z,99242.83
2022-12-24T06:53:34.197Z,99248.41
2022-12-24T06:56:02.855Z,99259.23
2022-12-24T06:58:31.210Z,99259.96
2022-12-24T07:01:00.391Z,99262.94
2022-12-24T07:03:28.147Z,99270.09
2022-12-24T07:05:56.554Z,99276.05
2022-12-24T07:08:26.700Z,99281.63
2022-12-24T07:10:54.921Z,99289.98
2022-12-24T07:13:25.162Z,99299.18
2022-12-24T07:16:02.139Z,99301.27
2022-12-24T07:18:33.474Z,99310.13
2022-12-24T07:21:02.230Z,99323.84
2022-12-24T07:23:31.656Z,99329.65
2022-12-24T07:26:02.873Z,99337.41
2022-12-24T07:28:32.601Z,99345.02
2022-12-24T07:31:02.090Z,99354.49
2022-12-24T07:33:30.188Z,99362.40
2022-12-24T07:36:03.716Z,99363.86
2022-12-24T07:38:32.880Z,99375.04
2022-12-24T07:41:02.508Z,99375.77
2022-12-24T07:43:32.513Z,99377.73
2022-12-24T07:46:00.459Z,99385.95
2022-12-24T07:48:29.754Z,99391.09
2022-12-24T07:50:58.277Z,99395.83
2022-12-24T07:53:28.362Z,99399.19
2022-12-24T07:55:56.530Z,99404.13
2022-12-24T07:58:24.805Z,99410.64
2022-12-24T08:01:00.224Z,99417.64
2022-12-24T08:03:33.596Z,99416.98
2022-12-24T08:06:05.302Z,99424.86
2022-12-24T08:08:33.242Z,99431.49
2022-12-24T08:11:05.067Z,99437.80
2022-12-24T08:13:33.734Z,99440.60
2022-12-24T08:16:02.281Z,99440.42
2022-12-24T08:18:30.300Z,99447.27
2022-12-24T08:20:58.555Z,99451.99
2022-12-24T08:23:26.549Z,99460.02
2022-12-24T08:25:57.581Z,99464.75
2022-12-24T08:28:25.588Z,99465.45
2022-12-24T08:30:54.796Z,99480.81
2022-12-24T08:33:24.058Z,99480.32
2022-12-24T08:35:56.725Z,99479.14
2022-12-24T08:38:24.765Z,99487.34
2022-12-24T08:40:53.647Z,99500.62
2022-12-24T08:43:21.899Z,99512.71
2022-12-24T08:45:49.594Z,99511.67
2022-12-24T08:48:17.991Z,99512.77
2022-12-24T08:50:49.199Z,99519.95
2022-12-24T08:53:18.278Z,99526.09
2022-12-24T08:55:50.330Z,99529.95
2022-12-24T08:58:24.622Z,99532.23
2022-12-24T09:00:53.528Z,99536.61
2022-12-24T09:03:27.349Z,99545.52
2022-12-24T09:05:56.890Z,99548.67
2022-12-24T09:08:26.155Z,99558.09
2022-12-24T09:10:55.433Z,99562.79
2022-12-24T09:13:24.560Z,99557.73
2022-12-24T09:15:56.096Z,99559.65
2022-12-24T09:18:24.175Z,99563.65
2022-12-24T09:20:57.020Z,99565.05
2022-12-24T09:23:25.099Z,99567.48
2022-12-24T09:25:52.764Z,99572.20
2022-12-24T09:28:20.653Z,99577.65
2022-12-24T09:30:57.182Z,99577.70
2022-12-24T09:33:27.567Z,99579.92
2022-12-24T09:36:06.620Z,99582.32
2022-12-24T09:38:35.333Z,99585.79
2022-12-24T09:41:14.744Z,99584.89
2022-12-24T09:43:52.417Z,99590.80
2022-12-24T09:46:26.855Z,99597.41
2022-12-24T09:48:58.538Z,99605.11
2022-12-24T09:51:33.626Z,99599.73
2022-12-24T09:54:06.902Z,99614.91
2022-12-24T09:56:39.899Z,99614.02
2022-12-24T09:59:13.237Z,99620.82
2022-12-24T10:01:41.119Z,99626.04
2022-12-24T10:04:13.229Z,99632.30
2022-12-24T10:06:50.169Z,99632.45
2022-12-24T10:09:34.525Z,99637.85
2022-12-24T10:12:09.769Z,99645.35
2022-12-24T10:14:55.908Z,99648.63
2022-12-24T10:17:40.054Z,99651.39
2022-12-24T10:20:35.781Z,99657.88
2022-12-24T10:23:11.309Z,99656.41
2022-12-24T10:25:47.977Z,99667.83
2022-12-24T10:28:19.220Z,99670.14
2022-12-24T10:30:59.788Z,99675.96
2022-12-24T10:33:35.715Z,99674.56
2022-12-24T10:36:11.919Z,99679.64
2022-12-24T10:38:41.372Z,99684.52
2022-12-24T10:41:09.817Z,99692.55
2022-12-24T10:43:40.119Z,99693.04
2022-12-24T10:46:18.469Z,99694.44
2022-12-24T10:48:51.418Z,99705.42
2022-12-24T10:51:25.358Z,99709.80
2022-12-24T10:54:00.919Z,99709.83
2022-12-24T10:56:28.936Z,99712.95
2022-12-24T10:58:56.940Z,99715.21
2022-12-24T11:01:46.203Z,99717.31
2022-12-24T11:04:18.816Z,99718.68
2022-12-24T11:06:56.295Z,99719.73
2022-12-24T11:09:26.742Z,99721.98
2022-12-24T11:11:57.997Z,99732.64
2022-12-24T11:14:33.963Z,99735.10
2022-12-24T11:17:02.647Z,99739.46
2022-12-24T11:19:34.936Z,99735.45
2022-12-24T11:22:10.723Z,99739.30
2022-12-24T11:24:38.908Z,99741.04
2022-12-24T11:27:31.615Z,99740.68
2022-12-24T11:30:25.113Z,99743.13
2022-12-24T11:33:18.762Z,99747.27
2022-12-24T11:35:51.336Z,99749.52
2022-12-24T11:38:22.062Z,99755.42
2022-12-24T11:40:59.250Z,99758.72
2022-12-24T11:43:43.722Z,99764.27
2022-12-24T11:46:20.262Z,99768.96
2022-12-24T11:48:49.055Z,99771.05
2022-12-24T11:51:24.220Z,99776.45
2022-12-24T11:54:02.541Z,99775.77
2022-12-24T11:56:38.185Z,99784.77
2022-12-24T11:59:15.008Z,99790.84
2022-12-24T12:01:54.632Z,99789.21
2022-12-24T12:04:24.953Z,99791.44
2022-12-24T12:06:57.788Z,99793.63
2022-12-24T12:09:34.861Z,99791.75
2022-12-24T12:12:08.494Z,99800.52
2022-12-24T12:14:40.564Z,99803.89
2022-12-24T12:17:23.934Z,99807.83
2022-12-24T12:19:57.742Z,99813.36
2022-12-24T12:22:32.775Z,99813.69
2022-12-24T12:25:02.676Z,99816.60
2022-12-24T12:27:37.661Z,99816.58
2022-12-24T12:30:12.713Z,99829.85
2022-12-24T12:32:48.400Z,99828.42
2022-12-24T12:35:24.577Z,99829.25
2022-12-24T12:37:58.902Z,99827.42
2022-12-24T12:40:44.997Z,99832.30
2022-12-24T12:43:31.016Z,99833.25
2022-12-24T12:46:07.395Z,99831.80
2022-12-24T12:49:02.242Z,99835.79
2022-12-24T12:51:41.693Z,99834.63
2022-12-24T12:54:35.383Z,99830.91
2022-12-24T12:57:08.034Z,99834.20
2022-12-24T12:59:41.672Z,99836.95
2022-12-24T13:02:26.114Z,99840.27
2022-12-24T13:05:19.045Z,99844.70
2022-12-24T13:08:17.422Z,99848.54
2022-12-24T13:11:26.851Z,99850.95
2022-12-24T13:14:24.757Z,99851.14
2022-12-24T13:17:16.702Z,99856.37
2022-12-24T13:20:09.007Z,99860.70
2022-12-24T13:22:37.215Z,99870.73
2022-12-24T13:25:06.373Z,99875.88
2022-12-24T13:27:35.262Z,99875.87
2022-12-24T13:30:25.970Z,99883.86
2022-12-24T13:32:56.714Z,99883.48
2022-12-24T13:35:37.573Z,99891.27
2022-12-24T13:38:31.554Z,99887.54
2022-12-24T13:41:41.068Z,99891.86
2022-12-24T13:44:33.307Z,99887.61
2022-12-24T13:47:04.978Z,99889.42
2022-12-24T13:49:36.158Z,99894.27
2022-12-24T13:52:21.908Z,99896.71
2022-12-24T13:55:02.608Z,99896.44
2022-12-24T13:57:35.578Z,99901.40
2022-12-24T14:00:08.722Z,99894.84
2022-12-24T14:02:48.920Z,99895.92
2022-12-24T14:05:24.657Z,99896.29
2022-12-24T14:07:54.912Z,99898.20
2022-12-24T14:10:26.291Z,99902.06
2022-12-24T14:12:54.977Z,99907.67
2022-12-24T14:16:03.084Z,99908.63
2022-12-24T14:18:35.430Z,99914.48
2022-12-24T14:21:06.669Z,99918.40
2022-12-24T14:23:44.150Z,99919.37
2022-12-24T14:26:18.817Z,99923.83
2022-12-24T14:28:54.721Z,99928.83
2022-12-24T14:31:25.691Z,99932.26
2022-12-24T14:34:10.230Z,99936.83
2022-12-24T14:36:38.813Z,99940.39
2022-12-24T14:39:12.816Z,99942.41
2022-12-24T14:41:50.507Z,99948.06
2022-12-24T14:44:38.040Z,99954.25
2022-12-24T14:47:22.990Z,99962.56
2022-12-24T14:50:11.322Z,99971.91
2022-12-24T14:53:05.094Z,99978.62
2022-12-24T14:55:40.426Z,99984.98
2022-12-24T14:58:27.758Z,99988.20
2022-12-24T15:00:57.391Z,99997.67
2022-12-24T15:03:27.508Z,100000.20
2022-12-24T15:06:06.098Z,100001.14
2022-12-24T15:08:45.342Z,100007.46
2022-12-24T15:11:18.857Z,100013.95
2022-12-24T15:13:50.001Z,100019.55
2022-12-24T15:16:23.744Z,100032.09
2022-12-24T15:18:55.509Z,100038.88
2022-12-24T15:21:31.942Z,100037.52
2022-12-24T15:24:01.435Z,100046.62
2022-12-24T15:26:35.590Z,100046.11
2022-12-24T15:29:17.007Z,100052.89
2022-12-24T15:32:11.483Z,100055.86
2022-12-24T15:34:42.489Z,100057.23
2022-12-24T15:37:19.753Z,100052.70
2022-12-24T15:39:59.010Z,100054.43
2022-12-24T15:42:29.882Z,100053.73
2022-12-24T15:45:01.467Z,100052.68
2022-12-24T15:47:37.205Z,100051.96
2022-12-24T15:50:14.890Z,100051.09
2022-12-24T15:52:43.405Z,100051.45
2022-12-24T15:55:27.546Z,100056.52
2022-12-24T15:57:55.332Z,100060.86
2022-12-24T16:00:26.746Z,100063.30
2022-12-24T16:02:55.286Z,100074.98
2022-12-24T16:05:36.898Z,100081.23
2022-12-24T16:08:30.675Z,100083.33
2022-12-24T16:11:15.592Z,100084.72
2022-12-24T16:13:56.240Z,100082.97
2022-12-24T16:16:33.909Z,100082.80
2022-12-24T16:19:05.123Z,100089.94
2022-12-24T16:21:35.592Z,100093.58
2022-12-24T16:24:14.126Z,100094.77
2022-12-24T16:26:41.833Z,100095.45
2022-12-24T16:29:12.101Z,100101.73
2022-12-24T16:31:51.626Z,100102.95
2022-12-24T16:34:27.011Z,100113.74
2022-12-24T16:36:56.084Z,100124.55
2022-12-24T16:39:30.305Z,100129.09
2022-12-24T16:42:18.610Z,100131.02
2022-12-24T16:44:48.260Z,100136.39
2022-12-24T16:47:20.379Z,100138.48
2022-12-24T16:49:49.275Z,100140.73
2022-12-24T16:52:22.784Z,100140.21
2022-12-24T16:54:55.404Z,100141.79
2022-12-24T16:57:23.895Z,100148.23
2022-12-24T16:59:52.651Z,100151.02
2022-12-24T17:02:22.776Z,100146.33
2022-12-24T17:04:52.435Z,100149.29
2022-12-24T17:07:25.152Z,100156.10
2022-12-24T17:09:53.080Z,100153.14
2022-12-24T17:12:22.358Z,100152.63
2022-12-24T17:14:51.547Z,100157.51
2022-12-24T17:17:25.974Z,100154.90
2022-12-24T17:19:54.490Z,100157.16
2022-12-24T17:22:23.247Z,100157.38
2022-12-24T17:24:50.815Z,100160.01
2022-12-24T17:27:18.419Z,100161.96
2022-12-24T17:29:46.935Z,100164.06
2022-12-24T17:32:17.661Z,100164.79
2022-12-24T17:34:45.414Z,100167.77
2022-12-24T17:37:14.450Z,100169.70
2022-12-24T17:39:47.727Z,100169.91
2022-12-24T17:42:16.131Z,100178.11
2022-12-24T17:44:45.229Z,100183.00
2022-12-24T17:47:12.817Z,100187.53
2022-12-24T17:49:42.513Z,100190.84
2022-12-24T17:52:11.168Z,100191.86
2022-12-24T17:54:39.039Z,100193.94
2022-12-24T17:57:07.433Z,100192.73
2022-12-24T17:59:37.444Z,100197.58
2022-12-24T18:02:06.697Z,100194.95
2022-12-24T18:04:35.891Z,100198.25
2022-12-24T18:07:04.004Z,100207.65
2022-12-24T18:09:35.083Z,100208.87
2022-12-24T18:12:02.718Z,100210.11
2022-12-24T18:14:35.000Z,100218.45
2022-12-24T18:17:03.782Z,100225.27
2022-12-24T18:19:32.686Z,100243.73
2022-12-24T18:22:01.310Z,100246.72
2022-12-24T18:24:29.368Z,100244.83
2022-12-24T18:27:02.316Z,100240.13
2022-12-24T18:29:31.110Z,100245.35
2022-12-24T18:32:01.335Z,100244.83
2022-12-24T18:34:29.015Z,100247.27
2022-12-24T18:36:58.730Z,100244.65
2022-12-24T18:39:27.398Z,100239.08
2022-12-24T18:41:56.584Z,100239.08
2022-12-24T18:44:25.879Z,100245.70
2022-12-24T18:46:54.399Z,100247.07
2022-12-24T18:49:22.545Z,100247.94
2022-12-24T18:51:50.188Z,100249.86
2022-12-24T18:54:18.184Z,100253.52
2022-12-24T18:56:54.561Z,100257.35
2022-12-24T18:59:22.505Z,100260.65
2022-12-24T19:01:51.331Z,100259.61
2022-12-24T19:04:20.836Z,100264.82
2022-12-24T19:06:53.083Z,100264.65
2022-12-24T19:09:27.964Z,100267.63
2022-12-24T19:11:58.510Z,100270.94
2022-12-24T19:14:28.903Z,100269.20
2022-12-24T19:16:57.713Z,100270.95
2022-12-24T19:19:25.524Z,100269.03
2022-12-24T19:21:53.489Z,100277.40
2022-12-24T19:24:22.296Z,100282.12
2022-12-24T19:26:57.316Z,100288.74
2022-12-24T19:29:25.744Z,100293.61
2022-12-24T19:31:57.228Z,100300.41
2022-12-24T19:34:25.193Z,100302.86
2022-12-24T19:37:00.682Z,100296.61
2022-12-24T19:39:32.077Z,100302.52
2022-12-24T19:42:02.871Z,100308.63
2022-12-24T19:44:30.741Z,100310.54
2022-12-24T19:47:04.831Z,100307.41
2022-12-24T19:49:33.364Z,100304.12
2022-12-24T19:52:07.604Z,100305.16
2022-12-24T19:54:39.361Z,100305.16
2022-12-24T19:57:07.948Z,100315.95
2022-12-24T19:59:38.473Z,100314.02
2022-12-24T20:02:09.491Z,100312.80
2022-12-24T20:04:39.195Z,100314.70
2022-12-24T20:07:09.359Z,100315.19
2022-12-24T20:09:41.547Z,100311.70
2022-12-24T20:12:09.314Z,100320.36
2022-12-24T20:17:19.702Z,100338.20
2022-12-24T20:19:50.226Z,100343.02
2022-12-24T20:22:18.103Z,100347.69
2022-12-24T20:24:46.133Z,100353.04
2022-12-24T20:27:14.689Z,100359.95
2022-12-24T20:29:46.032Z,100364.26
2022-12-24T20:32:16.793Z,100369.41
2022-12-24T20:34:46.345Z,100375.31
2022-12-24T20:37:15.238Z,100377.75
2022-12-24T20:39:44.332Z,100376.86
2022-12-24T20:42:13.550Z,100376.33
2022-12-24T20:44:41.769Z,100378.93
2022-12-24T20:47:10.305Z,100385.34
2022-12-24T20:49:39.377Z,100383.63
2022-12-24T20:52:09.589Z,100380.55
2022-12-24T20:55:01.343Z,100383.23
2022-12-24T20:57:35.871Z,100380.27
2022-12-24T21:00:06.890Z,100376.46
2022-12-24T21:02:35.309Z,100380.11
2022-12-24T21:05:04.488Z,100384.46
2022-12-24T21:07:33.271Z,100387.80
2022-12-24T21:10:03.911Z,100383.67
2022-12-24T21:12:53.938Z,100384.90
2022-12-24T21:15:24.805Z,100385.09
2022-12-24T21:17:54.827Z,100385.64
2022-12-24T21:20:24.757Z,100386.87
2022-12-24T21:23:01.471Z,100389.13
2022-12-24T21:25:29.357Z,100385.13
2022-12-24T21:27:56.943Z,100394.85
2022-12-24T21:30:25.257Z,100389.80
2022-12-24T21:33:02.114Z,100388.56
2022-12-24T21:35:30.070Z,100394.77
2022-12-24T21:37:59.983Z,100392.85
2022-12-24T21:40:28.576Z,100400.13
2022-12-24T21:42:58.069Z,100399.95
2022-12-24T21:45:25.693Z,100399.77
2022-12-24T21:47:53.408Z,100404.45
2022-12-24T21:50:39.150Z,100403.73
2022-12-24T21:53:25.068Z,100403.55
2022-12-24T21:55:52.600Z,100401.99
2022-12-24T21:58:20.318Z,100403.20
2022-12-24T22:00:49.744Z,100398.33
2022-12-24T22:03:18.189Z,100401.11
2022-12-24T22:05:46.213Z,100404.40
2022-12-24T22:08:32.391Z,100404.91
2022-12-24T22:11:24.698Z,100412.73
2022-12-24T22:13:52.423Z,100406.10
2022-12-24T22:16:22.700Z,100406.09
2022-12-24T22:18:50.716Z,100409.39
2022-12-24T22:21:18.463Z,100412.88
2022-12-24T22:23:47.223Z,100416.69
2022-12-24T22:26:17.049Z,100416.68
2022-12-24T22:28:48.012Z,100415.61
2022-12-24T22:31:20.212Z,100418.19
2022-12-24T22:33:50.255Z,100415.41
2022-12-24T22:36:40.200Z,100418.00
2022-12-24T22:39:08.020Z,100410.90
2022-12-24T22:41:35.636Z,100414.18
2022-12-24T22:44:05.616Z,100416.08
2022-12-24T22:46:33.644Z,100423.88
2022-12-24T22:49:02.600Z,100424.20
2022-12-24T22:51:31.628Z,100428.35
2022-12-24T22:53:59.751Z,100432.00
2022-12-24T22:56:36.868Z,100432.16
2022-12-24T22:59:09.159Z,100431.61
2022-12-24T23:01:39.084Z,100436.95
2022-12-24T23:04:10.261Z,100433.08
2022-12-24T23:06:40.788Z,100441.02
2022-12-24T23:09:15.053Z,100441.64
2022-12-24T23:11:43.393Z,100443.87
2022-12-24T23:14:49.442Z,100449.56
2022-12-24T23:17:17.155Z,100456.09
2022-12-24T23:19:45.126Z,100457.83
2022-12-24T23:22:13.176Z,100462.55
2022-12-24T23:24:41.230Z,100459.82
2022-12-24T23:27:08.769Z,100461.05
2022-12-24T23:29:38.821Z,100474.60
2022-12-24T23:32:06.822Z,100477.11
2022-12-24T23:34:35.856Z,100480.93
2022-12-24T23:37:04.222Z,100482.50
2022-12-24T23:39:31.788Z,100485.63
2022-12-24T23:42:02.744Z,100485.63
2022-12-24T23:44:32.684Z,100491.02
2022-12-24T23:47:00.826Z,100501.61
2022-12-24T23:49:30.742Z,100506.29
2022-12-24T23:51:59.687Z,100506.17
2022-12-24T23:54:28.008Z,100504.15
2022-12-24T23:56:56.341Z,100502.63
2022-12-24T23:59:25.450Z,100503.20
